< < Back
Terminal Aerodrome Forecast


Current Version              Previous Versions:   1  2  3  4  5  6  7  8  9  

Terminal Aerodrome Forecast

476
FTUS42 KTAE 250522
TAFABY
TAF
KABY 250522Z 2506/2606 10008KT P6SM SKC
     FM250900 09007KT P6SM BKN015
     FM251400 12009KT P6SM SCT040 SCT200
     FM251700 16010KT P6SM VCTS SCT025CB BKN050
      TEMPO 2519/2523 VRB15G25KT 3SM -TSRA BKN030CB=

Latest METAR

187
SAUS70 KWBC 251900 RRA
MTRABY
METAR KABY 251853Z 12008KT 10SM SCT060 BKN080 33/18 A3019 RMK AO2 SLP219
T03280183


USA.gov is the U.S. government's official web portal to all federal, state and local government web resources and services.